TNCMFJDG

Guest
Details From TNCM - St Maarten - Princess Juliana Intl
To FJDG - Diego Garcia Nsf
Flight Number -
Tags Generated
Created
Modified
Stats Distance 8,133 nm / 15,062 km
Max Altitude 0 ft / 0 m
Waypoints 3
Social Downloads 0
Likes 0
Share VATSIM

Download

Looking for another format? Having issues loading an existing format? Contact us
Advertisement - Login to hide

Notes

Generated

Route

TNCM R2472 FJDG

ID Type Via Altitude Latitude Longitude Leg Dist Tot Dist Heading (true) Name
O TNCM APT - 0 ft / 0 m 18.03937˚ -63.11961˚ - 0 nm - -
R2472 FIX - 0 ft / 0 m -7.30457˚ 72.39700˚ 8132 nm 8132 nm 82° / 108° -
O FJDG APT - 0 ft / 0 m -7.30457˚ 72.39700˚ 0 nm 8132 nm 0° / 180° -

Altitude Profile

Advertisement - Login to hide

Weather


0- 5 10 15 20 25 30 35+ Temperature / ° C

Clouds and Precipitation
Forecast for 2017-12-15 00:00 UTC. Updated 2 hours ago

Ground ~20,000 ft ~40,000 ft Winds

TNCM

Details ICAO TNCM (SXM)
Name St Maarten - Princess Juliana Intl
Region Caribbean Netherlands, Aruba, Curaçao, Sint Maarten
Timezone Unknown (UTC+0.0)
Stats Elevation 12 ft / 4 m (AMSL)
Location 18.040889° -63.108974°
Runways 1
Magnetic Variation 14.325° W

METAR

TNCM 150100Z 08008KT 040V110 9999 FEW018 26/21 Q1018 A3007

Decode

TAF

TAF TNCM 142320Z 1500/1524 07008KT P6SM SCT020 FM151200 06017KT P6SM VCSH FEW020 SCT040 FM152200 07012KT P6SM FEW022

Decode

Departure Runways

ID Width Length Bearing (true) Bearing (mag) Surface Threshold Offset Overrun Length
10 148 ft / 45 m 7,464 ft / 2,275 m 81.43° 95.76° Asphalt 0 ft / 0 m 151 ft / 46 m
28 148 ft / 45 m 7,464 ft / 2,275 m 261.44° 275.77° Asphalt 397 ft / 121 m 0 ft / 0 m

FJDG

Details ICAO FJDG
Name DIEGO GARCIA NSF
Region British Indian Ocean Territory
Timezone Indian/Chagos (UTC+6.0)
Stats Elevation 9 ft / 3 m (AMSL)
Location -7.313268° 72.411090°
Runways 1
Magnetic Variation 6.660° W

METAR

FJDG 150055Z 00000KT 9999 FEW020 FEW080 SCT240 26/25 A2984 RMK SLP102 T02580248

Decode

TAF

Not found

Destination Runways

ID Width Length Bearing (true) Bearing (mag) Surface Threshold Offset Overrun Length
13 200 ft / 61 m 12,015 ft / 3,662 m 121.89° 128.55° Concrete 0 ft / 0 m 950 ft / 290 m
31 200 ft / 61 m 12,015 ft / 3,662 m 301.88° 308.54° Concrete 0 ft / 0 m 950 ft / 290 m

Approach Navaids

Runway Type Ident Frequency Range Bearing (true) Bearing (mag) Slope Elevation
31 Localiser INKW 109.30 MHz 18 nm / 33 km 301.84° 308.50° - 9 ft / 3 m (AMSL)
31 Glidescope INKW 109.30 MHz 10 nm / 19 km 301.89° 308.55° 3.00° 9 ft / 3 m (AMSL)